Main page
METAR-TAF:

METAR-TAF

Airports :

Tolmachevo Airport

Novosibirsk, Russia

latitude: 55-01N, longitude: 082-38E, elevation: 111 m

Current weather observation

The report was made 26 minutes ago, at 19:00 UTC
Wind 12 kt from the Southwest
Temperature 1°C
Humidity 69%
Pressure 1019 hPa
Visibility 10 km or more
Scattered clouds at a height of 2500 ft

METAR: UNNT 171900Z 23006MPS 9999 SCT025 01/M04 Q1019 R25/190065 R34/190065 NOSIG RMK QFE754/1005

Time: 02:26 (19:26 UTC)

Forecast

The report was made 2 hours and 26 minutes ago, at 17:00 UTC
Forecast valid from 17 at 18 UTC to 18 at 18 UTC
Wind 14 kt from the South with gusts up to 29 kt
Visibility 10 km or more
Broken clouds at a height of 3000 ft, Cumulonimbus.
Temporary
from 17 at 18 UTC to 18 at 13 UTC
Wind 23 kt from the South/Southwest with gusts up to 39 kt
Broken clouds at a height of 2000 ft, Cumulonimbus.
light snow showers, rain

TAF: UNNT 171700Z 1718/1818 18007G15MPS 9999 BKN030CB TEMPO 1718/1813 21012G20MPS -SHSNRA BKN020CB

Weather observations and forecasts of more than 4000 airports (METAR and TAF reports).

The available stations are represented by yellow and red dots on the map.

Hover mouse over dot to see the name of the station.

Then click to see weather observations and forecasts.

To change the map : click on the green buttons with a black cross to zoom in, on the green button with a dash to zoom out, or on the green arrows for adjacent maps.


METAR-TAF: